Forside
METAR-TAF:

METAR-TAF

Lufthavne :

Iowa City Municipal Airport

Iowa City, Iowa, USA

Breddekreds: 41-37-58N, længdekreds: 091-32-35W, højde: 203 m

Aktuelle vejr

Denne rapport blev lavet for 19 minutter siden, kl. 12:52 UTC
Vind 5 kt fra nordnordøst
Temperatur 9°C
Fugtighed 57%
Tryk 1028 hPa
Sigt: 16.1 km
skyfri

METAR: KIOW 111252Z AUTO 03005KT 10SM CLR 09/01 A3037 RMK AO2 SLP285 T00890011

Tid: 08:11 (13:11 UTC)


TAF: fraværende

Vejrobservationer og prognoser fra mere end 4000 lufthavne (METAR og TAF).

De gule og røde prikker repræsenterer de meteorologiske stationer.

Flyt musen over at se navnet på stationen.

Så klik over at se vejr observationer og prognoser.

At skifte det kort: Klik på de grønne knapper med et sort kors for at zoome ind; på den grønne knap med en bindestreg for at zoome ud; eller på de grønne pile for tilstødende kort.


METAR-TAF: